Time;durP1;ratioP1;P1;durP2;ratioP2;P2;SDS_P1;SDS_P2;PMS_P1;PMS_P2;Temp;Humidity;BMP_temperature;BMP_pressure;BME280_temperature;BME280_humidity;BME280_pressure;Samples;Min_cycle;Max_cycle;Signal;HPM_P1;HPM_P2
2022/08/16 00:01:22;;;;;;;9.95;7.68;;;;;;;20.51;66.61;100466.03;5158396;27;20044;-74
2022/08/16 00:03:52;;;;;;;12.75;7.55;;;;;;;20.49;66.83;100474.22;5158054;27;20115;-74
2022/08/16 00:06:21;;;;;;;11.75;7.85;;;;;;;20.47;67.29;100468.97;5158362;27;20047;-74
2022/08/16 00:08:48;;;;;;;11.20;8.10;;;;;;;20.44;66.80;100466.53;5158314;27;20108;-74
2022/08/16 00:11:20;;;;;;;8.93;7.15;;;;;;;20.43;66.93;100469.34;5157973;27;20043;-74
2022/08/16 00:13:50;;;;;;;10.88;7.80;;;;;;;20.37;67.00;100462.66;5157649;27;20100;-74
2022/08/16 00:16:28;;;;;;;10.38;7.90;;;;;;;20.34;66.79;100468.22;5158272;27;20325;-74
2022/08/16 00:19:19;;;;;;;;;;;;;;;20.28;66.32;100466.03;5158518;27;20046;-74
2022/08/16 00:21:51;;;;;;;10.90;7.50;;;;;;;20.26;66.79;100474.16;5158187;27;19923;-74
2022/08/16 00:24:26;;;;;;;8.52;7.40;;;;;;;20.25;66.59;100474.28;5157570;27;20043;-74
2022/08/16 00:27:02;;;;;;;10.95;8.02;;;;;;;20.24;66.81;100475.25;5157892;27;20036;-74
2022/08/16 00:29:31;;;;;;;9.88;8.07;;;;;;;20.25;66.81;100474.28;5157982;27;20051;-74
2022/08/16 00:32:04;;;;;;;10.27;7.75;;;;;;;20.22;67.20;100474.50;5156776;27;20110;-74
2022/08/16 00:34:35;;;;;;;9.47;7.23;;;;;;;20.23;67.28;100474.41;5139642;27;20092;-74
2022/08/16 00:37:13;;;;;;;11.00;7.65;;;;;;;20.25;66.97;100472.44;5138808;27;20135;-74
2022/08/16 00:39:46;;;;;;;9.90;7.97;;;;;;;20.27;67.10;100478.53;5139328;27;20035;-74
2022/08/16 00:42:28;;;;;;;9.32;7.57;;;;;;;20.29;67.03;100473.94;5157940;27;20042;-74
2022/08/16 00:45:21;;;;;;;10.85;7.82;;;;;;;20.31;67.29;100469.31;5157599;27;20031;-74
2022/08/16 00:47:53;;;;;;;10.45;8.10;;;;;;;20.33;67.06;100474.53;5138956;27;20100;-74
2022/08/16 00:50:30;;;;;;;10.30;7.88;;;;;;;20.34;66.89;100465.53;5157415;27;20039;-74
2022/08/16 00:53:06;;;;;;;14.23;7.75;;;;;;;20.38;66.95;100468.84;5157596;27;20039;-74
2022/08/16 00:55:40;;;;;;;10.38;7.78;;;;;;;20.39;67.11;100470.53;5156359;27;20039;-74
2022/08/16 00:58:09;;;;;;;8.75;7.50;;;;;;;20.38;66.88;100472.38;5157535;27;20073;-74
2022/08/16 01:00:46;;;;;;;9.45;7.82;;;;;;;20.38;66.91;100477.72;5155703;27;20054;-74
2022/08/16 01:03:25;;;;;;;9.38;7.47;;;;;;;20.34;66.85;100484.28;5157196;27;20611;-74
2022/08/16 01:05:57;;;;;;;10.00;7.78;;;;;;;20.37;67.09;100489.41;5157786;27;20043;-74
2022/08/16 01:08:25;;;;;;;12.55;7.88;;;;;;;20.36;66.96;100477.00;5156867;27;20054;-74
2022/08/16 01:11:05;;;;;;;9.57;8.20;;;;;;;20.38;67.02;100479.53;5157133;27;20054;-74
2022/08/16 01:13:36;;;;;;;9.65;8.20;;;;;;;20.38;66.94;100487.56;5157271;27;20496;-74
2022/08/16 01:16:34;;;;;;;9.65;7.63;;;;;;;20.38;67.17;100492.94;5156425;27;20043;-74
2022/08/16 01:19:22;;;;;;;11.85;7.72;;;;;;;20.35;67.47;100483.31;5137121;27;20134;-74
2022/08/16 01:22:00;;;;;;;8.73;6.97;;;;;;;20.27;67.47;100485.72;5157051;27;20515;-74
2022/08/16 01:24:55;;;;;;;8.13;7.05;;;;;;;20.20;67.37;100487.16;5157060;27;20047;-74
2022/08/16 01:27:34;;;;;;;9.85;6.82;;;;;;;20.12;67.59;100474.38;5138624;27;20039;-74
2022/08/16 01:30:17;;;;;;;8.55;7.43;;;;;;;20.01;68.03;100476.06;5138664;27;20100;-74
2022/08/16 01:32:50;;;;;;;8.02;7.22;;;;;;;19.90;68.17;100480.50;5138141;27;20068;-74
2022/08/16 01:36:06;;;;;;;9.50;6.72;;;;;;;19.83;68.55;100480.09;5138222;27;20214;-74
2022/08/16 01:38:44;;;;;;;9.52;7.32;;;;;;;19.76;68.87;100484.19;5137963;27;20035;-74
2022/08/16 01:41:25;;;;;;;10.32;7.18;;;;;;;19.69;68.63;100486.44;5138256;27;20070;-74
2022/08/16 01:43:57;;;;;;;10.68;7.47;;;;;;;19.61;68.70;100481.69;5138191;27;20039;-74
2022/08/16 01:46:43;;;;;;;9.80;8.00;;;;;;;19.57;68.85;100482.88;5155382;27;20035;-74
2022/08/16 01:49:27;;;;;;;11.63;8.32;;;;;;;19.51;68.99;100489.53;5137558;27;20066;-74
2022/08/16 01:52:15;;;;;;;10.93;8.25;;;;;;;19.46;69.26;100489.03;5138655;27;20045;-74
2022/08/16 01:55:29;;;;;;;8.38;7.57;;;;;;;19.38;69.28;100486.06;5147609;27;20046;-74
2022/08/16 01:58:04;;;;;;;11.38;7.90;;;;;;;19.34;69.55;100480.06;5137888;27;20039;-74
2022/08/16 02:00:33;;;;;;;9.27;8.38;;;;;;;19.30;69.96;100477.75;5137777;27;20107;-74
2022/08/16 02:03:01;;;;;;;9.88;7.97;;;;;;;19.26;69.79;100482.44;5156637;27;20031;-74
2022/08/16 02:05:29;;;;;;;12.55;8.40;;;;;;;19.22;69.89;100476.47;5137781;27;20039;-74
2022/08/16 02:07:59;;;;;;;11.23;9.27;;;;;;;19.18;70.08;100475.00;5137826;27;20043;-73
2022/08/16 02:10:27;;;;;;;10.75;8.93;;;;;;;19.17;70.03;100486.66;5137432;27;20042;-74
2022/08/16 02:12:56;;;;;;;12.32;9.40;;;;;;;19.15;69.89;100480.56;5137798;27;20039;-74
2022/08/16 02:15:32;;;;;;;11.88;10.60;;;;;;;19.16;70.12;100478.75;5138287;27;20065;-74
2022/08/16 02:18:08;;;;;;;15.75;11.30;;;;;;;19.15;70.12;100477.91;5155768;27;20570;-74
2022/08/16 02:20:45;;;;;;;14.80;11.48;;;;;;;19.17;70.41;100477.78;5155853;27;20130;-73
2022/08/16 02:23:13;;;;;;;15.50;12.30;;;;;;;19.18;70.49;100471.47;5137313;27;20669;-74
2022/08/16 02:25:45;;;;;;;14.02;11.60;;;;;;;19.19;70.47;100476.69;5137772;27;20130;-74
2022/08/16 02:28:25;;;;;;;15.27;12.25;;;;;;;19.19;70.48;100470.50;5156159;27;20039;-74
2022/08/16 02:30:57;;;;;;;15.95;11.52;;;;;;;19.18;70.73;100472.31;5136979;27;20047;-74
2022/08/16 02:33:25;;;;;;;15.98;12.30;;;;;;;19.19;70.57;100474.03;5137537;27;20092;-74
2022/08/16 02:36:19;;;;;;;13.63;11.98;;;;;;;19.17;70.76;100473.31;5137297;27;20039;-74
2022/08/16 02:39:09;;;;;;;14.27;12.60;;;;;;;19.15;70.93;100475.22;5138140;27;20492;-74
2022/08/16 02:41:41;;;;;;;14.00;11.73;;;;;;;19.15;71.23;100475.22;5155527;27;20035;-74
2022/08/16 02:44:11;;;;;;;15.40;12.38;;;;;;;19.12;71.23;100474.59;5155411;27;20504;-74
2022/08/16 02:46:43;;;;;;;15.52;12.88;;;;;;;19.08;71.21;100464.13;5137466;27;20051;-74
2022/08/16 02:49:20;;;;;;;13.98;12.13;;;;;;;19.07;71.75;100474.94;5137377;27;20047;-74
2022/08/16 02:51:58;;;;;;;19.48;12.77;;;;;;;19.09;71.71;100475.66;5137027;27;20369;-74
2022/08/16 02:54:27;;;;;;;14.15;11.70;;;;;;;19.08;71.89;100477.50;5139062;27;20051;-74
2022/08/16 02:56:55;;;;;;;14.70;12.55;;;;;;;19.08;72.01;100473.94;5158017;27;20057;-74
2022/08/16 02:59:23;;;;;;;15.85;12.70;;;;;;;19.06;72.04;100474.06;5141154;27;20048;-74
2022/08/16 03:01:50;;;;;;;14.32;11.93;;;;;;;19.03;71.83;100471.59;5141110;27;20426;-74
2022/08/16 03:04:26;;;;;;;14.90;12.82;;;;;;;18.99;72.01;100467.47;5140391;27;20114;-73
2022/08/16 03:07:13;;;;;;;16.33;12.07;;;;;;;18.94;72.15;100472.28;5157856;27;20062;-74
2022/08/16 03:09:44;;;;;;;16.08;12.60;;;;;;;18.91;72.00;100469.81;5140881;27;20043;-74
2022/08/16 03:12:14;;;;;;;17.88;12.73;;;;;;;18.87;72.10;100466.47;5140692;27;20062;-74
2022/08/16 03:14:46;;;;;;;16.92;12.38;;;;;;;18.83;72.14;100457.00;5139997;27;20449;-74
2022/08/16 03:17:15;;;;;;;16.63;11.93;;;;;;;18.81;72.47;100458.91;5140228;27;20047;-74
2022/08/16 03:19:44;;;;;;;14.35;11.35;;;;;;;18.78;72.23;100468.00;5140354;27;20035;-74
2022/08/16 03:22:26;;;;;;;15.07;12.10;;;;;;;18.76;72.27;100469.09;5140618;27;20473;-74
2022/08/16 03:25:03;;;;;;;16.27;12.13;;;;;;;18.74;72.43;100468.34;5141017;27;20595;-74
2022/08/16 03:27:37;;;;;;;14.75;11.65;;;;;;;18.72;72.45;100468.41;5139527;27;20134;-74
2022/08/16 03:30:23;;;;;;;13.82;12.18;;;;;;;18.71;72.33;100468.53;5140426;27;20122;-74
2022/08/16 03:32:55;;;;;;;15.77;11.70;;;;;;;18.68;72.36;100471.41;5140563;27;20043;-74
2022/08/16 03:35:31;;;;;;;14.20;12.15;;;;;;;18.66;72.54;100470.69;5140217;27;20909;-74
2022/08/16 03:38:05;;;;;;;14.73;12.45;;;;;;;18.60;72.52;100464.81;5140253;27;20475;-74
2022/08/16 03:40:55;;;;;;;17.27;11.88;;;;;;;18.60;72.75;100470.16;5125778;27;20046;-74
2022/08/16 03:43:26;;;;;;;13.38;11.88;;;;;;;18.57;72.70;100466.84;5140487;27;20039;-74
2022/08/16 03:46:15;;;;;;;14.88;11.73;;;;;;;18.53;72.87;100468.00;5157438;27;20471;-74
2022/08/16 03:49:04;;;;;;;13.48;12.05;;;;;;;18.50;72.89;100465.56;5140163;27;20043;-74
2022/08/16 03:51:33;;;;;;;16.27;11.52;;;;;;;18.45;72.95;100466.72;5139995;27;20066;-74
2022/08/16 03:54:04;;;;;;;16.00;11.88;;;;;;;18.42;73.14;100469.59;5140184;27;20108;-74
2022/08/16 03:56:41;;;;;;;14.77;11.43;;;;;;;18.41;73.28;100477.72;5157491;27;20047;-74
2022/08/16 03:59:25;;;;;;;13.82;12.20;;;;;;;18.39;73.28;100480.50;5140295;27;20069;-74
2022/08/16 04:01:59;;;;;;;14.60;12.88;;;;;;;18.39;73.49;100477.84;5139674;27;20035;-74
2022/08/16 04:04:29;;;;;;;13.98;11.93;;;;;;;18.38;73.52;100478.81;5139769;27;20043;-74
2022/08/16 04:07:05;;;;;;;15.43;12.70;;;;;;;18.38;73.48;100491.28;5138666;27;20093;-75
2022/08/16 04:09:37;;;;;;;15.95;11.65;;;;;;;18.35;73.65;100499.50;5140128;27;20047;-74
2022/08/16 04:12:10;;;;;;;13.52;11.90;;;;;;;18.36;73.65;100494.06;5139690;27;20062;-74
2022/08/16 04:15:01;;;;;;;16.90;12.20;;;;;;;18.34;73.81;100487.97;5139555;27;20053;-74
2022/08/16 04:17:31;;;;;;;18.48;11.57;;;;;;;18.33;73.82;100499.59;5138980;27;20195;-74
2022/08/16 04:20:06;;;;;;;18.50;12.80;;;;;;;18.33;73.89;100498.75;5139187;27;20047;-74
2022/08/16 04:22:54;;;;;;;15.63;12.02;;;;;;;18.29;73.97;100504.28;5139674;27;20092;-74
2022/08/16 04:25:23;;;;;;;17.40;11.18;;;;;;;18.30;74.01;100502.50;5139565;27;20039;-74
2022/08/16 04:27:52;;;;;;;16.30;12.07;;;;;;;18.27;74.05;100508.88;5139490;27;20047;-74
2022/08/16 04:30:22;;;;;;;22.63;11.95;;;;;;;18.28;74.02;100515.06;5157341;27;20054;-74
2022/08/16 04:33:01;;;;;;;18.85;12.30;;;;;;;18.26;74.28;100517.00;5139711;27;20035;-74
2022/08/16 04:35:34;;;;;;;16.25;11.50;;;;;;;18.26;74.26;100523.16;5139259;27;20047;-74
2022/08/16 04:38:05;;;;;;;16.95;11.38;;;;;;;18.29;74.61;100527.47;5139089;27;20129;-74
2022/08/16 04:40:47;;;;;;;17.42;12.20;;;;;;;18.30;74.20;100521.16;5157597;27;20079;-74
2022/08/16 04:43:17;;;;;;;18.38;11.55;;;;;;;18.31;74.12;100515.72;5138849;27;20143;-74
2022/08/16 04:45:46;;;;;;;16.75;11.65;;;;;;;18.32;73.99;100521.91;5157641;27;20035;-74
2022/08/16 04:48:27;;;;;;;20.35;12.40;;;;;;;18.33;73.78;100528.94;5139215;27;20096;-74
2022/08/16 04:51:03;;;;;;;24.60;12.82;;;;;;;18.38;73.63;100532.16;5138914;27;20043;-74
2022/08/16 04:53:42;;;;;;;20.35;12.55;;;;;;;18.46;73.55;100543.16;5155941;27;20039;-74
2022/08/16 04:56:10;;;;;;;18.52;12.23;;;;;;;18.46;73.49;100537.00;5139433;27;20043;-74
2022/08/16 04:58:39;;;;;;;24.30;11.93;;;;;;;18.49;73.67;100535.91;5139240;27;20096;-74
2022/08/16 05:01:14;;;;;;;18.85;12.70;;;;;;;18.55;73.55;100546.16;5139198;27;20043;-74
2022/08/16 05:03:43;;;;;;;15.32;11.43;;;;;;;18.59;73.42;100540.50;5138851;27;20047;-74
2022/08/16 05:06:34;;;;;;;13.73;12.23;;;;;;;18.65;73.25;100549.91;5138059;27;20150;-74
2022/08/16 05:09:36;;;;;;;15.73;12.02;;;;;;;18.72;73.10;100547.69;5138694;27;20580;-74
2022/08/16 05:12:05;;;;;;;20.52;12.15;;;;;;;18.77;72.91;100545.56;5138878;27;20039;-74
2022/08/16 05:14:40;;;;;;;19.48;12.40;;;;;;;18.80;73.01;100550.66;5138441;27;20130;-74
2022/08/16 05:17:16;;;;;;;18.95;12.10;;;;;;;18.88;72.86;100548.31;5137875;27;20121;-74
2022/08/16 05:19:44;;;;;;;15.13;11.68;;;;;;;18.95;72.52;100547.91;5138505;27;20071;-74
2022/08/16 05:22:25;;;;;;;26.58;11.90;;;;;;;19.15;72.39;100546.50;5138651;27;20053;-74
2022/08/16 05:24:55;;;;;;;17.67;11.68;;;;;;;19.34;71.85;100540.69;5138562;27;20039;-74
2022/08/16 05:27:23;;;;;;;15.05;11.32;;;;;;;19.44;71.42;100541.75;5138570;27;20070;-74
2022/08/16 05:29:52;;;;;;;20.20;11.82;;;;;;;19.61;71.25;100535.16;5138738;27;20047;-74
2022/08/16 05:32:32;;;;;;;15.73;12.77;;;;;;;20.26;70.20;100542.91;5138112;27;20122;-74
2022/08/16 05:35:14;;;;;;;17.75;11.50;;;;;;;22.08;65.44;100541.03;5138349;27;20552;-74
2022/08/16 05:37:57;;;;;;;;;;;;;;;23.62;60.65;100533.22;5138569;27;20590;-74
2022/08/16 05:40:25;;;;;;;14.13;11.20;;;;;;;24.75;58.32;100531.81;5138405;27;19929;-74
2022/08/16 05:42:53;;;;;;;14.05;10.52;;;;;;;25.72;55.30;100540.41;5138305;27;20546;-74
2022/08/16 05:45:23;;;;;;;13.50;11.07;;;;;;;26.46;52.22;100542.09;5138249;27;20039;-74
2022/08/16 05:47:55;;;;;;;11.93;10.23;;;;;;;27.00;50.88;100533.81;5137759;27;20043;-74
2022/08/16 05:50:33;;;;;;;17.70;10.93;;;;;;;26.95;49.89;100544.28;5156476;27;20031;-74
2022/08/16 05:53:02;;;;;;;11.55;10.20;;;;;;;25.65;52.10;100549.25;5138142;27;20043;-74
2022/08/16 05:55:34;;;;;;;16.70;11.00;;;;;;;24.40;55.10;100549.41;5138131;27;20035;-74
2022/08/16 05:58:07;;;;;;;15.93;11.23;;;;;;;23.49;57.08;100555.00;5138229;27;20046;-75
2022/08/16 06:00:35;;;;;;;12.05;10.82;;;;;;;22.85;58.69;100565.88;5138072;27;20404;-75
2022/08/16 06:03:03;;;;;;;17.85;12.35;;;;;;;22.30;60.66;100560.69;5137815;27;20043;-74
2022/08/16 06:05:50;;;;;;;15.52;12.27;;;;;;;21.89;62.00;100568.56;5155806;27;20049;-74
2022/08/16 06:08:17;;;;;;;18.63;13.15;;;;;;;21.64;62.60;100567.88;5156417;27;20128;-74
2022/08/16 06:10:59;;;;;;;17.50;13.95;;;;;;;21.45;63.53;100570.31;5137934;27;20461;-74
2022/08/16 06:13:38;;;;;;;17.88;13.60;;;;;;;21.30;64.24;100575.09;5137464;27;20039;-74
2022/08/16 06:16:09;;;;;;;21.25;14.40;;;;;;;21.21;64.69;100576.69;5138016;27;20122;-74
2022/08/16 06:18:46;;;;;;;16.67;14.52;;;;;;;21.12;65.44;100574.72;5134120;27;20055;-74
2022/08/16 06:21:14;;;;;;;19.88;14.80;;;;;;;21.01;65.61;100575.59;5134348;27;20476;-74
2022/08/16 06:23:51;;;;;;;18.15;14.93;;;;;;;20.96;65.93;100575.94;5133818;27;20036;-74
2022/08/16 06:26:23;;;;;;;18.15;15.35;;;;;;;20.94;66.29;100581.44;5134195;27;20055;-75
2022/08/16 06:29:04;;;;;;;17.17;15.35;;;;;;;20.96;66.53;100591.19;5133192;27;20039;-74
2022/08/16 06:31:37;;;;;;;29.77;17.00;;;;;;;20.99;66.55;100586.44;5133888;27;20050;-74
2022/08/16 06:34:20;;;;;;;38.38;17.88;;;;;;;21.04;66.57;100586.91;5134120;27;20127;-74
2022/08/16 06:37:12;;;;;;;21.38;16.30;;;;;;;21.10;66.21;100589.13;5133735;27;20089;-74
2022/08/16 06:39:41;;;;;;;23.33;16.60;;;;;;;21.17;66.41;100581.41;5134114;27;20476;-74
2022/08/16 06:42:29;;;;;;;21.35;17.95;;;;;;;21.24;66.41;100579.97;5133648;27;20040;-74
2022/08/16 06:45:28;;;;;;;25.70;18.10;;;;;;;21.36;66.66;100582.66;5134069;27;20054;-74
2022/08/16 06:48:05;;;;;;;20.08;17.65;;;;;;;21.44;66.35;100572.16;5133664;27;20139;-74
2022/08/16 06:50:34;;;;;;;22.30;17.15;;;;;;;21.51;66.19;100580.56;5134968;27;20066;-75
2022/08/16 06:53:06;;;;;;;21.10;16.90;;;;;;;21.61;66.35;100581.56;5133819;27;20048;-74
2022/08/16 06:55:45;;;;;;;21.95;16.40;;;;;;;21.73;65.94;100579.69;5133871;27;20036;-74
2022/08/16 06:58:22;;;;;;;20.77;17.02;;;;;;;21.87;65.33;100581.25;5133610;27;20070;-74
2022/08/16 07:01:07;;;;;;;28.10;16.58;;;;;;;22.00;64.85;100581.94;5133332;27;20493;-74
2022/08/16 07:03:42;;;;;;;25.73;16.60;;;;;;;22.09;64.60;100584.84;5133779;27;20054;-74
2022/08/16 07:06:22;;;;;;;23.88;14.88;;;;;;;22.20;63.86;100590.16;5133729;27;20493;-74
2022/08/16 07:08:59;;;;;;;16.90;14.77;;;;;;;22.30;63.94;100582.19;5133586;27;20040;-74
2022/08/16 07:11:31;;;;;;;17.50;14.50;;;;;;;22.39;63.56;100584.09;5133440;27;20044;-74
2022/08/16 07:14:17;;;;;;;15.73;13.95;;;;;;;22.53;62.74;100592.84;5133276;27;20048;-74
2022/08/16 07:16:56;;;;;;;22.90;15.48;;;;;;;22.61;62.60;100601.09;5133387;27;20055;-74
2022/08/16 07:19:31;;;;;;;18.58;14.82;;;;;;;22.72;61.69;100592.97;5133075;27;20050;-74
2022/08/16 07:22:19;;;;;;;20.90;14.80;;;;;;;22.85;61.09;100600.81;5132914;27;20044;-74
2022/08/16 07:25:13;;;;;;;19.27;14.30;;;;;;;22.93;61.22;100603.72;5133198;27;20093;-74
2022/08/16 07:27:43;;;;;;;19.57;14.87;;;;;;;23.01;60.79;100599.50;5133529;27;20048;-74
2022/08/16 07:30:17;;;;;;;20.23;14.07;;;;;;;23.10;60.64;100617.53;5134594;27;20043;-74
2022/08/16 07:33:06;;;;;;;22.02;14.45;;;;;;;23.21;60.83;100609.41;5132857;27;20554;-74
2022/08/16 07:35:36;;;;;;;17.20;13.38;;;;;;;23.35;60.18;100605.50;5133275;27;20040;-74
2022/08/16 07:38:16;;;;;;;16.83;13.13;;;;;;;23.44;59.83;100608.34;5133531;27;20119;-75
2022/08/16 07:40:54;;;;;;;21.50;14.18;;;;;;;23.50;59.27;100613.22;5135489;27;20035;-74
2022/08/16 07:43:27;;;;;;;17.65;14.18;;;;;;;23.56;58.78;100618.03;5136295;27;20568;-75
2022/08/16 07:45:59;;;;;;;41.38;15.30;;;;;;;23.60;59.22;100619.47;5136890;27;20096;-74
2022/08/16 07:48:29;;;;;;;22.27;13.73;;;;;;;23.67;59.05;100626.00;5136535;27;20043;-74
2022/08/16 07:50:57;;;;;;;19.45;12.93;;;;;;;23.75;58.40;100633.38;5137974;27;20054;-74
2022/08/16 07:53:33;;;;;;;17.40;12.55;;;;;;;23.84;58.40;100637.94;5136586;27;20065;-75
2022/08/16 07:56:10;;;;;;;16.60;13.65;;;;;;;23.92;58.51;100629.16;5135981;27;20115;-74
2022/08/16 07:58:39;;;;;;;18.98;13.60;;;;;;;24.00;58.49;100626.69;5136578;27;20108;-74
2022/08/16 08:01:14;;;;;;;17.48;13.02;;;;;;;24.09;57.94;100626.81;5138015;27;20105;-74
2022/08/16 08:03:57;;;;;;;20.67;13.07;;;;;;;24.19;58.41;100627.69;5136558;27;20043;-74
2022/08/16 08:06:31;;;;;;;19.83;13.63;;;;;;;24.26;57.83;100631.50;5136125;27;20039;-74
2022/08/16 08:09:05;;;;;;;15.20;12.50;;;;;;;24.37;57.44;100626.97;5136599;27;20118;-75
2022/08/16 08:11:33;;;;;;;17.77;12.73;;;;;;;24.46;57.13;100632.38;5136365;27;20084;-74
2022/08/16 08:14:03;;;;;;;13.23;11.82;;;;;;;24.52;56.60;100632.78;5135878;27;20044;-74
2022/08/16 08:16:38;;;;;;;20.65;11.20;;;;;;;24.61;56.39;100631.91;5137755;27;20044;-74
2022/08/16 08:19:16;;;;;;;17.15;11.00;;;;;;;24.73;55.97;100636.19;5139882;27;20407;-75
2022/08/16 08:21:46;;;;;;;17.67;11.02;;;;;;;24.86;55.73;100645.84;5139301;27;20510;-74
2022/08/16 08:24:47;;;;;;;16.98;11.30;;;;;;;24.93;54.60;100637.00;5157455;27;20039;-74
2022/08/16 08:27:15;;;;;;;14.35;10.20;;;;;;;24.99;54.36;100640.97;5158129;27;20144;-75
2022/08/16 08:29:51;;;;;;;17.35;10.27;;;;;;;25.04;54.88;100641.38;5156695;27;20039;-74
2022/08/16 08:32:40;;;;;;;15.60;9.77;;;;;;;25.17;54.43;100646.44;5156640;27;20231;-74
2022/08/16 08:35:25;;;;;;;13.07;9.77;;;;;;;25.32;54.32;100646.81;5139675;27;20066;-74
2022/08/16 08:37:54;;;;;;;12.60;9.63;;;;;;;25.47;54.19;100654.47;5158033;27;20115;-74
2022/08/16 08:40:28;;;;;;;15.55;9.50;;;;;;;25.53;53.78;100649.34;5139457;27;20039;-75
2022/08/16 08:42:59;;;;;;;13.77;9.48;;;;;;;25.57;52.27;100650.72;5139521;27;20039;-74
2022/08/16 08:45:47;;;;;;;15.30;9.38;;;;;;;25.60;52.32;100648.72;5139489;27;20035;-75
2022/08/16 08:48:21;;;;;;;11.35;9.18;;;;;;;25.63;51.84;100662.78;5138552;27;20054;-75
2022/08/16 08:51:06;;;;;;;15.32;8.52;;;;;;;25.67;52.40;100664.19;5138594;27;20042;-75
2022/08/16 08:53:42;;;;;;;23.60;9.32;;;;;;;25.72;51.97;100667.28;5156228;27;20071;-74
2022/08/16 08:56:11;;;;;;;20.85;8.73;;;;;;;25.82;51.73;100661.84;5138787;27;20051;-74
2022/08/16 08:58:52;;;;;;;16.35;9.02;;;;;;;25.89;52.21;100660.22;5138979;27;20043;-74
2022/08/16 09:01:35;;;;;;;12.23;8.65;;;;;;;26.03;51.61;100656.16;5139060;27;20123;-74
2022/08/16 09:04:23;;;;;;;12.75;8.77;;;;;;;26.14;50.99;100665.94;5138893;27;20122;-73
2022/08/16 09:06:52;;;;;;;12.82;8.68;;;;;;;26.22;50.84;100670.56;5138981;27;20047;-74
2022/08/16 09:09:22;;;;;;;12.30;8.27;;;;;;;26.27;50.45;100668.25;5138566;27;20043;-75
2022/08/16 09:11:56;;;;;;;13.80;8.52;;;;;;;26.32;50.29;100665.94;5138690;27;20122;-74
2022/08/16 09:14:38;;;;;;;12.45;7.70;;;;;;;26.37;50.20;100664.63;5155859;27;20092;-75
2022/08/16 09:17:20;;;;;;;14.43;7.40;;;;;;;26.49;50.17;100663.41;5138174;27;20059;-75
2022/08/16 09:20:13;;;;;;;12.38;7.78;;;;;;;26.60;49.59;100660.44;5138902;27;20039;-75
2022/08/16 09:22:42;;;;;;;;;;;;;;;26.69;49.19;100663.22;5157129;27;20061;-74
2022/08/16 09:25:17;;;;;;;9.38;7.47;;;;;;;26.81;48.85;100676.34;5155814;27;19927;-75
2022/08/16 09:27:52;;;;;;;9.75;6.90;;;;;;;26.91;48.59;100665.44;5155602;27;20059;-74
2022/08/16 09:30:33;;;;;;;9.68;6.72;;;;;;;27.03;48.32;100662.47;5138775;27;20046;-74
2022/08/16 09:33:17;;;;;;;11.50;7.32;;;;;;;27.15;47.86;100669.31;5157172;27;20046;-75
2022/08/16 09:35:48;;;;;;;10.40;7.43;;;;;;;27.21;47.53;100668.69;5156423;27;20047;-74
2022/08/16 09:38:24;;;;;;;45.75;7.57;;;;;;;27.25;47.71;100664.66;5157118;27;20046;-74
2022/08/16 09:41:01;;;;;;;17.80;6.50;;;;;;;27.36;47.11;100676.19;5156766;27;20031;-74
2022/08/16 09:43:30;;;;;;;13.10;6.38;;;;;;;27.43;47.32;100675.44;5156560;27;20039;-75
2022/08/16 09:46:17;;;;;;;12.75;5.63;;;;;;;27.45;44.98;100679.84;5156604;27;20035;-75
2022/08/16 09:49:04;;;;;;;9.15;5.47;;;;;;;27.39;46.13;100678.59;5156565;27;20522;-74
2022/08/16 09:51:35;;;;;;;12.40;5.30;;;;;;;27.46;46.72;100681.53;5156379;27;20031;-74
2022/08/16 09:54:05;;;;;;;6.50;5.55;;;;;;;27.62;45.59;100673.50;5156638;27;20043;-74
2022/08/16 09:56:38;;;;;;;9.77;5.35;;;;;;;27.72;45.47;100673.38;5157046;27;20093;-74
2022/08/16 09:59:23;;;;;;;10.67;5.60;;;;;;;27.85;45.54;100676.44;5156775;27;20118;-75
2022/08/16 10:01:53;;;;;;;6.78;5.07;;;;;;;27.98;45.30;100677.84;5156663;27;20505;-75
2022/08/16 10:04:24;;;;;;;8.30;5.03;;;;;;;28.07;44.48;100673.31;5156523;27;20046;-74
2022/08/16 10:07:02;;;;;;;11.48;4.85;;;;;;;28.17;43.80;100669.47;5155777;27;20153;-74
2022/08/16 10:09:44;;;;;;;10.27;4.60;;;;;;;28.27;42.99;100666.59;5156231;27;20039;-75
2022/08/16 10:15:24;;;;;;;11.18;4.45;;;;;;;28.36;42.96;100665.59;5155376;27;20496;-75
2022/08/16 10:17:57;;;;;;;11.13;4.65;;;;;;;28.50;41.58;100664.09;5155808;27;20863;-74
2022/08/16 10:20:33;;;;;;;9.55;4.50;;;;;;;28.61;41.53;100662.06;5156630;27;20039;-74
2022/08/16 10:23:15;;;;;;;12.60;3.97;;;;;;;28.69;41.70;100663.94;5156158;27;20086;-74
2022/08/16 10:25:45;;;;;;;5.05;3.50;;;;;;;28.77;40.33;100659.34;5155344;27;20077;-75
2022/08/16 10:28:33;;;;;;;5.80;3.55;;;;;;;28.89;40.09;100669.84;5155633;27;20061;-74
2022/08/16 10:31:08;;;;;;;5.45;4.45;;;;;;;28.95;39.39;100666.44;5155975;27;20048;-74
2022/08/16 10:33:43;;;;;;;9.77;3.53;;;;;;;28.96;39.74;100674.44;5155819;27;20050;-75
2022/08/16 10:36:13;;;;;;;8.70;4.30;;;;;;;29.04;39.91;100670.00;5156099;27;20470;-74
2022/08/16 10:39:00;;;;;;;5.30;4.10;;;;;;;29.09;38.90;100668.47;5156011;27;20039;-75
2022/08/16 10:41:27;;;;;;;5.13;3.65;;;;;;;29.11;39.22;100665.56;5155268;27;20100;-74
2022/08/16 10:43:55;;;;;;;6.75;3.55;;;;;;;29.17;38.36;100662.19;5156188;27;20046;-74
2022/08/16 10:46:22;;;;;;;8.07;3.33;;;;;;;29.23;37.96;100674.22;5155879;27;20074;-74
2022/08/16 10:49:11;;;;;;;4.45;2.78;;;;;;;29.33;37.91;100674.03;5155747;27;20043;-75
2022/08/16 10:51:39;;;;;;;4.53;3.03;;;;;;;29.40;37.71;100677.78;5155129;27;20039;-74
2022/08/16 10:54:26;;;;;;;7.93;3.22;;;;;;;29.47;37.42;100673.34;5155699;27;20420;-73
2022/08/16 10:56:59;;;;;;;5.25;3.28;;;;;;;29.52;37.44;100680.94;5155438;27;20584;-74
2022/08/16 10:59:33;;;;;;;3.88;2.88;;;;;;;29.58;36.82;100683.81;5155560;27;20051;-74
2022/08/16 11:02:21;;;;;;;4.90;3.33;;;;;;;29.68;35.65;100675.44;5154907;27;20047;-75
2022/08/16 11:05:15;;;;;;;7.82;3.15;;;;;;;29.78;36.05;100677.09;5156028;27;20144;-74
2022/08/16 11:07:47;;;;;;;4.35;3.15;;;;;;;29.89;36.53;100683.00;5155351;27;20043;-75
2022/08/16 11:10:31;;;;;;;10.40;3.50;;;;;;;29.97;36.25;100676.69;5155203;27;20043;-74
2022/08/16 11:13:26;;;;;;;6.63;3.38;;;;;;;30.09;36.59;100668.13;5154925;27;20040;-74
2022/08/16 11:16:13;;;;;;;7.47;3.00;;;;;;;30.22;35.13;100673.84;5157638;27;20114;-75
2022/08/16 11:19:02;;;;;;;3.88;3.00;;;;;;;30.27;35.94;100673.28;5117529;27;20040;-74
2022/08/16 11:21:42;;;;;;;8.73;3.17;;;;;;;30.40;35.82;100686.28;5117467;27;20098;-74
2022/08/16 11:24:30;;;;;;;4.85;2.88;;;;;;;30.57;34.83;100678.88;5117335;28;20513;-74
2022/08/16 11:27:17;;;;;;;4.70;2.92;;;;;;;30.71;34.78;100677.22;5117652;27;20042;-74
2022/08/16 11:29:49;;;;;;;7.38;3.25;;;;;;;30.84;33.85;100693.78;5117043;27;20044;-78
2022/08/16 11:32:22;;;;;;;5.80;3.05;;;;;;;30.90;33.42;100692.19;5117312;27;20032;-74
2022/08/16 11:35:05;;;;;;;5.70;3.20;;;;;;;30.92;33.87;100696.41;5117008;27;20055;-73
2022/08/16 11:37:48;;;;;;;7.85;2.90;;;;;;;30.96;33.70;100689.59;5117304;27;20036;-74
2022/08/16 11:40:50;;;;;;;11.63;3.35;;;;;;;31.10;34.46;100695.22;5117464;28;20572;-74
2022/08/16 11:43:23;;;;;;;9.13;3.30;;;;;;;31.20;32.90;100689.56;5116637;27;20055;-74
2022/08/16 11:45:55;;;;;;;14.40;3.50;;;;;;;31.25;32.32;100696.13;5117232;27;20040;-74
2022/08/16 11:48:26;;;;;;;16.00;3.30;;;;;;;31.19;32.27;100696.84;5117051;27;20472;-74
2022/08/16 11:50:55;;;;;;;23.58;3.80;;;;;;;31.20;32.83;100695.00;5117325;27;20036;-74
2022/08/16 11:53:23;;;;;;;14.77;3.63;;;;;;;31.22;32.44;100692.94;5117503;27;20063;-73
2022/08/16 11:55:54;;;;;;;11.02;3.40;;;;;;;31.21;32.29;100700.25;5116757;27;20579;-74
2022/08/16 11:58:24;;;;;;;35.97;4.32;;;;;;;31.03;32.03;100700.59;5116984;27;20055;-74
2022/08/16 12:00:56;;;;;;;11.80;3.53;;;;;;;30.80;32.86;100704.19;5116841;27;20048;-73